sensor_id;sensor_type;location;lat;lon;timestamp;P1;durP1;ratioP1;P2;durP2;ratioP2
71150;SDS011;59071;42.138;24.768;2023-08-12T00:02:32;3.88;;;2.15;;
71150;SDS011;59071;42.138;24.768;2023-08-12T00:04:59;2.65;;;2.17;;
71150;SDS011;59071;42.138;24.768;2023-08-12T00:07:24;3.72;;;2.30;;
71150;SDS011;59071;42.138;24.768;2023-08-12T00:09:49;3.08;;;2.28;;
71150;SDS011;59071;42.138;24.768;2023-08-12T00:12:15;2.30;;;2.00;;
71150;SDS011;59071;42.138;24.768;2023-08-12T00:14:40;3.30;;;2.20;;
71150;SDS011;59071;42.138;24.768;2023-08-12T00:17:06;2.63;;;2.30;;
71150;SDS011;59071;42.138;24.768;2023-08-12T00:19:31;2.30;;;2.10;;
71150;SDS011;59071;42.138;24.768;2023-08-12T00:21:57;2.78;;;2.40;;
71150;SDS011;59071;42.138;24.768;2023-08-12T00:24:22;2.65;;;2.33;;
71150;SDS011;59071;42.138;24.768;2023-08-12T00:26:47;2.40;;;2.10;;
71150;SDS011;59071;42.138;24.768;2023-08-12T00:29:13;3.03;;;2.15;;
71150;SDS011;59071;42.138;24.768;2023-08-12T00:31:38;3.35;;;2.13;;
71150;SDS011;59071;42.138;24.768;2023-08-12T00:34:04;2.47;;;2.20;;
71150;SDS011;59071;42.138;24.768;2023-08-12T00:36:29;2.75;;;2.30;;
71150;SDS011;59071;42.138;24.768;2023-08-12T00:38:54;2.70;;;2.30;;
71150;SDS011;59071;42.138;24.768;2023-08-12T00:41:20;2.58;;;2.20;;
71150;SDS011;59071;42.138;24.768;2023-08-12T00:43:45;4.75;;;2.90;;
71150;SDS011;59071;42.138;24.768;2023-08-12T00:46:11;2.63;;;2.13;;
71150;SDS011;59071;42.138;24.768;2023-08-12T00:48:38;2.83;;;2.10;;
71150;SDS011;59071;42.138;24.768;2023-08-12T00:51:03;2.75;;;2.35;;
71150;SDS011;59071;42.138;24.768;2023-08-12T00:53:29;3.22;;;2.33;;
71150;SDS011;59071;42.138;24.768;2023-08-12T00:55:55;4.05;;;2.50;;
71150;SDS011;59071;42.138;24.768;2023-08-12T00:58:20;2.97;;;2.45;;
71150;SDS011;59071;42.138;24.768;2023-08-12T01:00:46;3.05;;;2.33;;
71150;SDS011;59071;42.138;24.768;2023-08-12T01:03:11;2.50;;;2.17;;
71150;SDS011;59071;42.138;24.768;2023-08-12T01:05:37;2.83;;;2.35;;
71150;SDS011;59071;42.138;24.768;2023-08-12T01:08:02;2.92;;;2.20;;
71150;SDS011;59071;42.138;24.768;2023-08-12T01:10:29;3.20;;;2.20;;
71150;SDS011;59071;42.138;24.768;2023-08-12T01:13:06;3.42;;;2.40;;
71150;SDS011;59071;42.138;24.768;2023-08-12T01:15:44;3.15;;;2.30;;
71150;SDS011;59071;42.138;24.768;2023-08-12T01:18:12;3.80;;;2.40;;
71150;SDS011;59071;42.138;24.768;2023-08-12T01:20:39;2.90;;;2.20;;
71150;SDS011;59071;42.138;24.768;2023-08-12T01:23:07;4.68;;;2.38;;
71150;SDS011;59071;42.138;24.768;2023-08-12T01:25:35;3.55;;;2.40;;
71150;SDS011;59071;42.138;24.768;2023-08-12T01:28:00;2.55;;;2.22;;
71150;SDS011;59071;42.138;24.768;2023-08-12T01:30:26;2.50;;;2.30;;
71150;SDS011;59071;42.138;24.768;2023-08-12T01:32:56;2.47;;;2.20;;
71150;SDS011;59071;42.138;24.768;2023-08-12T01:37:58;2.40;;;2.10;;
71150;SDS011;59071;42.138;24.768;2023-08-12T01:40:26;2.35;;;2.15;;
71150;SDS011;59071;42.138;24.768;2023-08-12T01:42:54;2.72;;;2.30;;
71150;SDS011;59071;42.138;24.768;2023-08-12T01:45:19;3.38;;;2.40;;
71150;SDS011;59071;42.138;24.768;2023-08-12T01:47:45;3.92;;;2.38;;
71150;SDS011;59071;42.138;24.768;2023-08-12T01:50:11;2.72;;;2.13;;
71150;SDS011;59071;42.138;24.768;2023-08-12T01:52:36;3.45;;;2.20;;
71150;SDS011;59071;42.138;24.768;2023-08-12T01:55:02;2.80;;;2.30;;
71150;SDS011;59071;42.138;24.768;2023-08-12T01:57:27;3.67;;;2.30;;
71150;SDS011;59071;42.138;24.768;2023-08-12T01:59:53;4.20;;;2.50;;
71150;SDS011;59071;42.138;24.768;2023-08-12T02:02:18;2.95;;;2.42;;
71150;SDS011;59071;42.138;24.768;2023-08-12T02:04:44;3.05;;;2.33;;
71150;SDS011;59071;42.138;24.768;2023-08-12T02:07:09;2.90;;;2.35;;
71150;SDS011;59071;42.138;24.768;2023-08-12T02:09:35;2.60;;;2.30;;
71150;SDS011;59071;42.138;24.768;2023-08-12T02:12:00;4.13;;;2.30;;
71150;SDS011;59071;42.138;24.768;2023-08-12T02:14:26;3.75;;;2.20;;
71150;SDS011;59071;42.138;24.768;2023-08-12T02:16:51;2.92;;;2.47;;
71150;SDS011;59071;42.138;24.768;2023-08-12T02:19:17;2.70;;;2.40;;
71150;SDS011;59071;42.138;24.768;2023-08-12T02:21:42;5.18;;;2.50;;
71150;SDS011;59071;42.138;24.768;2023-08-12T02:24:07;2.30;;;2.10;;
71150;SDS011;59071;42.138;24.768;2023-08-12T02:26:33;4.88;;;2.50;;
71150;SDS011;59071;42.138;24.768;2023-08-12T02:28:58;2.85;;;2.28;;
71150;SDS011;59071;42.138;24.768;2023-08-12T02:31:24;3.42;;;2.40;;
71150;SDS011;59071;42.138;24.768;2023-08-12T02:33:50;3.17;;;2.38;;
71150;SDS011;59071;42.138;24.768;2023-08-12T02:36:15;3.72;;;2.35;;
71150;SDS011;59071;42.138;24.768;2023-08-12T02:38:41;4.47;;;2.58;;
71150;SDS011;59071;42.138;24.768;2023-08-12T02:41:06;2.90;;;2.30;;
71150;SDS011;59071;42.138;24.768;2023-08-12T02:43:32;2.78;;;2.47;;
71150;SDS011;59071;42.138;24.768;2023-08-12T02:45:57;2.92;;;2.35;;
71150;SDS011;59071;42.138;24.768;2023-08-12T02:48:23;2.97;;;2.42;;
71150;SDS011;59071;42.138;24.768;2023-08-12T02:50:48;4.07;;;2.40;;
71150;SDS011;59071;42.138;24.768;2023-08-12T02:53:14;3.72;;;2.35;;
71150;SDS011;59071;42.138;24.768;2023-08-12T02:55:40;2.50;;;2.30;;
71150;SDS011;59071;42.138;24.768;2023-08-12T02:58:05;2.92;;;2.50;;
71150;SDS011;59071;42.138;24.768;2023-08-12T03:00:31;2.95;;;2.30;;
71150;SDS011;59071;42.138;24.768;2023-08-12T03:02:56;3.83;;;2.42;;
71150;SDS011;59071;42.138;24.768;2023-08-12T03:05:22;2.83;;;2.45;;
71150;SDS011;59071;42.138;24.768;2023-08-12T03:07:48;3.92;;;2.42;;
71150;SDS011;59071;42.138;24.768;2023-08-12T03:10:14;2.78;;;2.40;;
71150;SDS011;59071;42.138;24.768;2023-08-12T03:12:39;3.28;;;2.50;;
71150;SDS011;59071;42.138;24.768;2023-08-12T03:15:06;2.58;;;2.22;;
71150;SDS011;59071;42.138;24.768;2023-08-12T03:17:32;5.60;;;2.22;;
71150;SDS011;59071;42.138;24.768;2023-08-12T03:19:57;3.40;;;2.50;;
71150;SDS011;59071;42.138;24.768;2023-08-12T03:22:24;5.63;;;2.60;;
71150;SDS011;59071;42.138;24.768;2023-08-12T03:24:50;5.43;;;2.67;;
71150;SDS011;59071;42.138;24.768;2023-08-12T03:27:16;3.17;;;2.30;;
71150;SDS011;59071;42.138;24.768;2023-08-12T03:29:41;2.83;;;2.38;;
71150;SDS011;59071;42.138;24.768;2023-08-12T03:32:07;2.97;;;2.40;;
71150;SDS011;59071;42.138;24.768;2023-08-12T03:34:32;3.63;;;2.58;;
71150;SDS011;59071;42.138;24.768;2023-08-12T03:36:58;3.55;;;2.22;;
71150;SDS011;59071;42.138;24.768;2023-08-12T03:39:23;3.65;;;2.35;;
71150;SDS011;59071;42.138;24.768;2023-08-12T03:41:49;3.90;;;2.50;;
71150;SDS011;59071;42.138;24.768;2023-08-12T03:44:15;3.38;;;2.50;;
71150;SDS011;59071;42.138;24.768;2023-08-12T03:46:41;4.22;;;2.72;;
71150;SDS011;59071;42.138;24.768;2023-08-12T03:49:06;5.20;;;2.40;;
71150;SDS011;59071;42.138;24.768;2023-08-12T03:51:32;4.43;;;2.65;;
71150;SDS011;59071;42.138;24.768;2023-08-12T03:53:58;3.92;;;2.53;;
71150;SDS011;59071;42.138;24.768;2023-08-12T03:56:23;4.65;;;2.45;;
71150;SDS011;59071;42.138;24.768;2023-08-12T03:58:48;3.13;;;2.38;;
71150;SDS011;59071;42.138;24.768;2023-08-12T04:01:14;3.50;;;2.50;;
71150;SDS011;59071;42.138;24.768;2023-08-12T04:03:39;3.88;;;2.42;;
71150;SDS011;59071;42.138;24.768;2023-08-12T04:06:05;3.95;;;2.42;;
71150;SDS011;59071;42.138;24.768;2023-08-12T04:08:30;3.22;;;2.47;;
71150;SDS011;59071;42.138;24.768;2023-08-12T04:10:57;3.25;;;2.47;;
71150;SDS011;59071;42.138;24.768;2023-08-12T04:13:22;3.00;;;2.40;;
71150;SDS011;59071;42.138;24.768;2023-08-12T04:15:49;3.83;;;2.50;;
71150;SDS011;59071;42.138;24.768;2023-08-12T04:18:16;3.42;;;2.65;;
71150;SDS011;59071;42.138;24.768;2023-08-12T04:20:41;6.40;;;3.20;;
71150;SDS011;59071;42.138;24.768;2023-08-12T04:23:07;3.13;;;2.63;;
71150;SDS011;59071;42.138;24.768;2023-08-12T04:25:32;3.78;;;2.70;;
71150;SDS011;59071;42.138;24.768;2023-08-12T04:27:58;5.47;;;2.65;;
71150;SDS011;59071;42.138;24.768;2023-08-12T04:30:23;2.97;;;2.65;;
71150;SDS011;59071;42.138;24.768;2023-08-12T04:32:49;3.25;;;2.40;;
71150;SDS011;59071;42.138;24.768;2023-08-12T04:35:14;3.45;;;2.63;;
71150;SDS011;59071;42.138;24.768;2023-08-12T04:37:40;4.18;;;2.70;;
71150;SDS011;59071;42.138;24.768;2023-08-12T04:40:05;6.28;;;2.92;;
71150;SDS011;59071;42.138;24.768;2023-08-12T04:42:35;3.63;;;2.70;;
71150;SDS011;59071;42.138;24.768;2023-08-12T04:45:01;3.50;;;2.60;;
71150;SDS011;59071;42.138;24.768;2023-08-12T04:47:26;3.10;;;2.45;;
71150;SDS011;59071;42.138;24.768;2023-08-12T04:49:51;3.80;;;3.00;;
71150;SDS011;59071;42.138;24.768;2023-08-12T04:52:17;3.13;;;2.53;;
71150;SDS011;59071;42.138;24.768;2023-08-12T04:54:43;4.50;;;2.60;;
71150;SDS011;59071;42.138;24.768;2023-08-12T04:57:08;3.13;;;2.83;;
71150;SDS011;59071;42.138;24.768;2023-08-12T04:59:34;3.90;;;2.83;;
71150;SDS011;59071;42.138;24.768;2023-08-12T05:01:59;3.95;;;2.95;;
71150;SDS011;59071;42.138;24.768;2023-08-12T05:04:24;3.70;;;3.00;;
71150;SDS011;59071;42.138;24.768;2023-08-12T05:06:50;3.95;;;2.80;;
71150;SDS011;59071;42.138;24.768;2023-08-12T05:09:15;3.83;;;2.90;;
71150;SDS011;59071;42.138;24.768;2023-08-12T05:11:41;3.83;;;3.05;;
71150;SDS011;59071;42.138;24.768;2023-08-12T05:14:06;5.65;;;2.90;;
71150;SDS011;59071;42.138;24.768;2023-08-12T05:16:31;5.18;;;2.75;;
71150;SDS011;59071;42.138;24.768;2023-08-12T05:18:57;3.60;;;2.72;;
71150;SDS011;59071;42.138;24.768;2023-08-12T05:21:22;6.57;;;2.97;;
71150;SDS011;59071;42.138;24.768;2023-08-12T05:23:48;5.60;;;3.10;;
71150;SDS011;59071;42.138;24.768;2023-08-12T05:26:13;4.65;;;2.72;;
71150;SDS011;59071;42.138;24.768;2023-08-12T05:28:39;5.30;;;2.67;;
71150;SDS011;59071;42.138;24.768;2023-08-12T05:31:04;6.80;;;2.90;;
71150;SDS011;59071;42.138;24.768;2023-08-12T05:33:30;4.20;;;3.03;;
71150;SDS011;59071;42.138;24.768;2023-08-12T05:35:55;4.60;;;2.90;;
71150;SDS011;59071;42.138;24.768;2023-08-12T05:38:20;3.72;;;3.17;;
71150;SDS011;59071;42.138;24.768;2023-08-12T05:40:46;4.53;;;2.95;;
71150;SDS011;59071;42.138;24.768;2023-08-12T05:43:12;4.55;;;2.70;;
71150;SDS011;59071;42.138;24.768;2023-08-12T05:45:37;5.38;;;3.00;;
71150;SDS011;59071;42.138;24.768;2023-08-12T05:48:03;5.32;;;3.00;;
71150;SDS011;59071;42.138;24.768;2023-08-12T05:50:28;4.03;;;3.10;;
71150;SDS011;59071;42.138;24.768;2023-08-12T05:52:54;4.47;;;3.30;;
71150;SDS011;59071;42.138;24.768;2023-08-12T05:55:19;5.88;;;3.20;;
71150;SDS011;59071;42.138;24.768;2023-08-12T05:57:45;4.93;;;3.00;;
71150;SDS011;59071;42.138;24.768;2023-08-12T06:00:10;5.35;;;2.88;;
71150;SDS011;59071;42.138;24.768;2023-08-12T06:02:36;4.07;;;2.83;;
71150;SDS011;59071;42.138;24.768;2023-08-12T06:05:02;3.85;;;3.05;;
71150;SDS011;59071;42.138;24.768;2023-08-12T06:07:27;5.00;;;3.05;;
71150;SDS011;59071;42.138;24.768;2023-08-12T06:09:53;4.82;;;3.30;;
71150;SDS011;59071;42.138;24.768;2023-08-12T06:12:18;7.07;;;3.30;;
71150;SDS011;59071;42.138;24.768;2023-08-12T06:14:44;8.32;;;3.35;;
71150;SDS011;59071;42.138;24.768;2023-08-12T06:17:09;5.63;;;2.72;;
71150;SDS011;59071;42.138;24.768;2023-08-12T06:19:35;5.78;;;2.85;;
71150;SDS011;59071;42.138;24.768;2023-08-12T06:22:00;5.80;;;3.15;;
71150;SDS011;59071;42.138;24.768;2023-08-12T06:24:26;4.93;;;3.03;;
71150;SDS011;59071;42.138;24.768;2023-08-12T06:26:51;5.43;;;2.78;;
71150;SDS011;59071;42.138;24.768;2023-08-12T06:29:16;3.75;;;3.13;;
71150;SDS011;59071;42.138;24.768;2023-08-12T06:31:42;6.00;;;3.08;;
71150;SDS011;59071;42.138;24.768;2023-08-12T06:34:07;6.30;;;2.85;;
71150;SDS011;59071;42.138;24.768;2023-08-12T06:36:33;3.42;;;2.58;;
71150;SDS011;59071;42.138;24.768;2023-08-12T06:38:58;3.78;;;2.70;;
71150;SDS011;59071;42.138;24.768;2023-08-12T06:41:24;2.90;;;2.38;;
71150;SDS011;59071;42.138;24.768;2023-08-12T06:43:49;4.97;;;2.75;;
71150;SDS011;59071;42.138;24.768;2023-08-12T06:46:14;4.78;;;2.80;;
71150;SDS011;59071;42.138;24.768;2023-08-12T06:48:40;2.55;;;2.35;;
71150;SDS011;59071;42.138;24.768;2023-08-12T06:51:05;5.97;;;2.70;;
71150;SDS011;59071;42.138;24.768;2023-08-12T06:53:35;4.47;;;2.80;;
71150;SDS011;59071;42.138;24.768;2023-08-12T06:56:01;4.35;;;2.65;;
71150;SDS011;59071;42.138;24.768;2023-08-12T06:58:27;4.15;;;2.53;;
71150;SDS011;59071;42.138;24.768;2023-08-12T07:00:52;3.33;;;2.25;;
71150;SDS011;59071;42.138;24.768;2023-08-12T07:03:18;3.03;;;2.47;;
71150;SDS011;59071;42.138;24.768;2023-08-12T07:05:44;5.00;;;2.50;;
71150;SDS011;59071;42.138;24.768;2023-08-12T07:08:09;3.53;;;2.55;;
71150;SDS011;59071;42.138;24.768;2023-08-12T07:10:37;2.80;;;2.22;;
71150;SDS011;59071;42.138;24.768;2023-08-12T07:13:03;2.80;;;2.20;;
71150;SDS011;59071;42.138;24.768;2023-08-12T07:15:29;2.72;;;2.15;;
71150;SDS011;59071;42.138;24.768;2023-08-12T07:17:54;7.82;;;4.85;;
71150;SDS011;59071;42.138;24.768;2023-08-12T07:20:20;8.45;;;2.88;;
71150;SDS011;59071;42.138;24.768;2023-08-12T07:22:46;5.63;;;2.60;;
71150;SDS011;59071;42.138;24.768;2023-08-12T07:25:11;2.50;;;2.10;;
71150;SDS011;59071;42.138;24.768;2023-08-12T07:27:37;3.13;;;2.50;;
71150;SDS011;59071;42.138;24.768;2023-08-12T07:30:02;5.57;;;2.85;;
71150;SDS011;59071;42.138;24.768;2023-08-12T07:32:28;4.90;;;2.33;;
71150;SDS011;59071;42.138;24.768;2023-08-12T07:34:53;4.13;;;2.10;;
71150;SDS011;59071;42.138;24.768;2023-08-12T07:37:19;2.50;;;2.20;;
71150;SDS011;59071;42.138;24.768;2023-08-12T07:39:45;2.45;;;2.10;;
71150;SDS011;59071;42.138;24.768;2023-08-12T07:42:10;2.42;;;2.00;;
71150;SDS011;59071;42.138;24.768;2023-08-12T07:44:37;2.88;;;2.20;;
71150;SDS011;59071;42.138;24.768;2023-08-12T07:47:02;3.08;;;2.10;;
71150;SDS011;59071;42.138;24.768;2023-08-12T07:49:28;2.17;;;1.92;;
71150;SDS011;59071;42.138;24.768;2023-08-12T07:51:53;3.42;;;2.20;;
71150;SDS011;59071;42.138;24.768;2023-08-12T07:54:19;2.60;;;2.25;;
71150;SDS011;59071;42.138;24.768;2023-08-12T07:56:44;4.60;;;2.40;;
71150;SDS011;59071;42.138;24.768;2023-08-12T07:59:09;5.93;;;2.25;;
71150;SDS011;59071;42.138;24.768;2023-08-12T08:01:35;3.55;;;2.20;;
71150;SDS011;59071;42.138;24.768;2023-08-12T08:04:01;2.90;;;2.30;;
71150;SDS011;59071;42.138;24.768;2023-08-12T08:06:26;3.25;;;2.10;;
71150;SDS011;59071;42.138;24.768;2023-08-12T08:08:53;2.40;;;2.10;;
71150;SDS011;59071;42.138;24.768;2023-08-12T08:11:20;2.50;;;1.98;;
71150;SDS011;59071;42.138;24.768;2023-08-12T08:13:46;3.35;;;2.20;;
71150;SDS011;59071;42.138;24.768;2023-08-12T08:16:11;4.88;;;4.38;;
71150;SDS011;59071;42.138;24.768;2023-08-12T08:18:37;5.00;;;3.38;;
71150;SDS011;59071;42.138;24.768;2023-08-12T08:21:02;3.05;;;2.08;;
71150;SDS011;59071;42.138;24.768;2023-08-12T08:23:28;2.40;;;2.00;;
71150;SDS011;59071;42.138;24.768;2023-08-12T08:25:53;2.60;;;2.00;;
71150;SDS011;59071;42.138;24.768;2023-08-12T08:28:18;3.05;;;1.92;;
71150;SDS011;59071;42.138;24.768;2023-08-12T08:30:44;2.92;;;2.03;;
71150;SDS011;59071;42.138;24.768;2023-08-12T08:33:09;3.75;;;2.00;;
71150;SDS011;59071;42.138;24.768;2023-08-12T08:35:35;2.20;;;2.00;;
71150;SDS011;59071;42.138;24.768;2023-08-12T08:38:00;4.05;;;2.10;;
71150;SDS011;59071;42.138;24.768;2023-08-12T08:40:26;2.28;;;1.92;;
71150;SDS011;59071;42.138;24.768;2023-08-12T08:42:52;2.60;;;1.77;;
71150;SDS011;59071;42.138;24.768;2023-08-12T08:45:20;2.97;;;2.00;;
71150;SDS011;59071;42.138;24.768;2023-08-12T08:47:47;2.10;;;1.90;;
71150;SDS011;59071;42.138;24.768;2023-08-12T08:50:14;4.07;;;1.90;;
71150;SDS011;59071;42.138;24.768;2023-08-12T08:52:40;2.83;;;2.10;;
71150;SDS011;59071;42.138;24.768;2023-08-12T08:55:08;2.33;;;2.10;;
71150;SDS011;59071;42.138;24.768;2023-08-12T08:57:34;2.88;;;2.22;;
71150;SDS011;59071;42.138;24.768;2023-08-12T09:00:00;4.05;;;2.30;;
71150;SDS011;59071;42.138;24.768;2023-08-12T09:02:25;2.85;;;2.30;;
71150;SDS011;59071;42.138;24.768;2023-08-12T09:04:51;4.25;;;3.10;;
71150;SDS011;59071;42.138;24.768;2023-08-12T09:07:18;3.75;;;2.40;;
71150;SDS011;59071;42.138;24.768;2023-08-12T09:09:45;2.78;;;1.88;;
71150;SDS011;59071;42.138;24.768;2023-08-12T09:14:39;2.05;;;1.85;;
71150;SDS011;59071;42.138;24.768;2023-08-12T09:17:05;2.20;;;1.92;;
71150;SDS011;59071;42.138;24.768;2023-08-12T09:19:31;4.72;;;1.77;;
71150;SDS011;59071;42.138;24.768;2023-08-12T09:21:56;1.90;;;1.70;;
71150;SDS011;59071;42.138;24.768;2023-08-12T09:24:25;4.65;;;1.90;;
71150;SDS011;59071;42.138;24.768;2023-08-12T09:26:51;3.15;;;1.90;;
71150;SDS011;59071;42.138;24.768;2023-08-12T09:29:17;4.55;;;3.13;;
71150;SDS011;59071;42.138;24.768;2023-08-12T09:31:43;4.90;;;2.20;;
71150;SDS011;59071;42.138;24.768;2023-08-12T09:34:08;3.35;;;1.90;;
71150;SDS011;59071;42.138;24.768;2023-08-12T09:36:34;3.45;;;2.03;;
71150;SDS011;59071;42.138;24.768;2023-08-12T09:39:00;3.40;;;2.00;;
71150;SDS011;59071;42.138;24.768;2023-08-12T09:41:28;2.20;;;1.80;;
71150;SDS011;59071;42.138;24.768;2023-08-12T09:43:55;2.90;;;2.00;;
71150;SDS011;59071;42.138;24.768;2023-08-12T09:46:22;2.28;;;2.00;;
71150;SDS011;59071;42.138;24.768;2023-08-12T09:48:51;3.60;;;1.80;;
71150;SDS011;59071;42.138;24.768;2023-08-12T09:51:20;2.22;;;1.80;;
71150;SDS011;59071;42.138;24.768;2023-08-12T09:53:47;3.70;;;2.03;;
71150;SDS011;59071;42.138;24.768;2023-08-12T09:56:14;2.45;;;1.75;;
71150;SDS011;59071;42.138;24.768;2023-08-12T09:58:44;3.63;;;1.98;;
71150;SDS011;59071;42.138;24.768;2023-08-12T10:01:18;4.60;;;1.80;;
71150;SDS011;59071;42.138;24.768;2023-08-12T10:03:47;1.75;;;1.65;;
71150;SDS011;59071;42.138;24.768;2023-08-12T10:06:15;2.17;;;1.83;;
71150;SDS011;59071;42.138;24.768;2023-08-12T10:08:40;2.42;;;2.00;;
71150;SDS011;59071;42.138;24.768;2023-08-12T10:11:06;3.28;;;1.83;;
71150;SDS011;59071;42.138;24.768;2023-08-12T10:13:33;1.90;;;1.70;;
71150;SDS011;59071;42.138;24.768;2023-08-12T10:15:59;1.80;;;1.70;;
71150;SDS011;59071;42.138;24.768;2023-08-12T10:18:25;1.83;;;1.73;;
71150;SDS011;59071;42.138;24.768;2023-08-12T10:20:56;2.65;;;2.13;;
71150;SDS011;59071;42.138;24.768;2023-08-12T10:23:24;2.58;;;2.10;;
71150;SDS011;59071;42.138;24.768;2023-08-12T10:25:50;2.38;;;1.92;;
71150;SDS011;59071;42.138;24.768;2023-08-12T10:28:19;2.03;;;1.83;;
71150;SDS011;59071;42.138;24.768;2023-08-12T10:30:45;2.20;;;1.80;;
71150;SDS011;59071;42.138;24.768;2023-08-12T10:33:11;2.20;;;1.90;;
71150;SDS011;59071;42.138;24.768;2023-08-12T10:35:43;2.67;;;2.00;;
71150;SDS011;59071;42.138;24.768;2023-08-12T10:38:13;2.13;;;1.90;;
71150;SDS011;59071;42.138;24.768;2023-08-12T10:40:46;2.45;;;1.75;;
71150;SDS011;59071;42.138;24.768;2023-08-12T10:43:14;2.15;;;1.90;;
71150;SDS011;59071;42.138;24.768;2023-08-12T10:45:40;1.75;;;1.60;;
71150;SDS011;59071;42.138;24.768;2023-08-12T10:50:34;2.47;;;1.70;;
71150;SDS011;59071;42.138;24.768;2023-08-12T10:52:59;1.95;;;1.75;;
71150;SDS011;59071;42.138;24.768;2023-08-12T10:55:58;2.28;;;1.80;;
71150;SDS011;59071;42.138;24.768;2023-08-12T10:58:28;1.92;;;1.67;;
71150;SDS011;59071;42.138;24.768;2023-08-12T11:00:55;2.92;;;1.70;;
71150;SDS011;59071;42.138;24.768;2023-08-12T11:03:22;2.72;;;1.88;;
71150;SDS011;59071;42.138;24.768;2023-08-12T11:05:48;2.90;;;1.90;;
71150;SDS011;59071;42.138;24.768;2023-08-12T11:08:14;2.10;;;1.85;;
71150;SDS011;59071;42.138;24.768;2023-08-12T11:10:39;2.10;;;1.80;;
71150;SDS011;59071;42.138;24.768;2023-08-12T11:13:05;3.35;;;1.73;;
71150;SDS011;59071;42.138;24.768;2023-08-12T11:15:34;2.00;;;1.80;;
71150;SDS011;59071;42.138;24.768;2023-08-12T11:18:17;2.50;;;2.00;;
71150;SDS011;59071;42.138;24.768;2023-08-12T11:20:44;2.22;;;1.60;;
71150;SDS011;59071;42.138;24.768;2023-08-12T11:23:10;3.13;;;1.80;;
71150;SDS011;59071;42.138;24.768;2023-08-12T11:25:36;2.03;;;1.83;;
71150;SDS011;59071;42.138;24.768;2023-08-12T11:28:04;2.28;;;1.77;;
71150;SDS011;59071;42.138;24.768;2023-08-12T11:30:31;1.88;;;1.77;;
71150;SDS011;59071;42.138;24.768;2023-08-12T11:32:57;1.70;;;1.60;;
71150;SDS011;59071;42.138;24.768;2023-08-12T11:35:23;1.83;;;1.65;;
71150;SDS011;59071;42.138;24.768;2023-08-12T11:37:50;2.15;;;1.70;;
71150;SDS011;59071;42.138;24.768;2023-08-12T11:40:21;3.22;;;1.80;;
71150;SDS011;59071;42.138;24.768;2023-08-12T11:42:47;3.20;;;1.92;;
71150;SDS011;59071;42.138;24.768;2023-08-12T11:45:18;2.00;;;1.80;;
71150;SDS011;59071;42.138;24.768;2023-08-12T11:47:44;2.17;;;1.90;;
71150;SDS011;59071;42.138;24.768;2023-08-12T11:50:12;2.28;;;2.08;;
71150;SDS011;59071;42.138;24.768;2023-08-12T11:52:38;2.47;;;1.92;;
71150;SDS011;59071;42.138;24.768;2023-08-12T11:55:05;2.20;;;2.00;;
71150;SDS011;59071;42.138;24.768;2023-08-12T11:57:32;2.20;;;2.00;;
71150;SDS011;59071;42.138;24.768;2023-08-12T12:00:02;3.33;;;2.00;;
71150;SDS011;59071;42.138;24.768;2023-08-12T12:02:41;2.55;;;2.10;;
71150;SDS011;59071;42.138;24.768;2023-08-12T12:05:16;3.47;;;2.00;;
71150;SDS011;59071;42.138;24.768;2023-08-12T12:07:43;2.58;;;1.90;;
71150;SDS011;59071;42.138;24.768;2023-08-12T12:10:14;2.15;;;1.77;;
71150;SDS011;59071;42.138;24.768;2023-08-12T12:12:53;2.45;;;2.00;;
71150;SDS011;59071;42.138;24.768;2023-08-12T12:15:19;2.55;;;2.10;;
71150;SDS011;59071;42.138;24.768;2023-08-12T12:17:45;2.42;;;1.70;;
71150;SDS011;59071;42.138;24.768;2023-08-12T12:20:12;2.10;;;1.90;;
71150;SDS011;59071;42.138;24.768;2023-08-12T12:22:40;2.22;;;2.00;;
71150;SDS011;59071;42.138;24.768;2023-08-12T12:25:10;2.15;;;1.95;;
71150;SDS011;59071;42.138;24.768;2023-08-12T12:27:38;2.35;;;1.90;;
71150;SDS011;59071;42.138;24.768;2023-08-12T12:30:05;2.28;;;2.08;;
71150;SDS011;59071;42.138;24.768;2023-08-12T12:32:35;2.20;;;2.00;;
71150;SDS011;59071;42.138;24.768;2023-08-12T12:35:00;4.75;;;1.95;;
71150;SDS011;59071;42.138;24.768;2023-08-12T12:37:26;2.70;;;1.85;;
71150;SDS011;59071;42.138;24.768;2023-08-12T12:39:52;2.50;;;2.08;;
71150;SDS011;59071;42.138;24.768;2023-08-12T12:42:18;3.08;;;2.10;;
71150;SDS011;59071;42.138;24.768;2023-08-12T12:44:43;2.38;;;2.10;;
71150;SDS011;59071;42.138;24.768;2023-08-12T12:47:09;2.28;;;2.00;;
71150;SDS011;59071;42.138;24.768;2023-08-12T12:49:37;2.22;;;2.03;;
71150;SDS011;59071;42.138;24.768;2023-08-12T12:52:21;4.10;;;2.30;;
71150;SDS011;59071;42.138;24.768;2023-08-12T12:54:46;3.03;;;2.40;;
71150;SDS011;59071;42.138;24.768;2023-08-12T12:57:11;2.63;;;2.08;;
71150;SDS011;59071;42.138;24.768;2023-08-12T12:59:37;4.13;;;1.90;;
71150;SDS011;59071;42.138;24.768;2023-08-12T13:02:02;2.90;;;2.10;;
71150;SDS011;59071;42.138;24.768;2023-08-12T13:04:28;2.58;;;2.00;;
71150;SDS011;59071;42.138;24.768;2023-08-12T13:06:53;4.97;;;2.97;;
71150;SDS011;59071;42.138;24.768;2023-08-12T13:09:18;2.83;;;2.38;;
71150;SDS011;59071;42.138;24.768;2023-08-12T13:11:44;2.45;;;1.90;;
71150;SDS011;59071;42.138;24.768;2023-08-12T13:14:09;3.42;;;1.90;;
71150;SDS011;59071;42.138;24.768;2023-08-12T13:16:35;4.10;;;1.92;;
71150;SDS011;59071;42.138;24.768;2023-08-12T13:19:00;3.85;;;1.88;;
71150;SDS011;59071;42.138;24.768;2023-08-12T13:21:26;1.85;;;1.65;;
71150;SDS011;59071;42.138;24.768;2023-08-12T13:23:52;2.10;;;1.70;;
71150;SDS011;59071;42.138;24.768;2023-08-12T13:26:18;3.50;;;1.90;;
71150;SDS011;59071;42.138;24.768;2023-08-12T13:28:43;2.25;;;1.88;;
71150;SDS011;59071;42.138;24.768;2023-08-12T13:31:09;2.80;;;1.80;;
71150;SDS011;59071;42.138;24.768;2023-08-12T13:33:34;2.60;;;2.08;;
71150;SDS011;59071;42.138;24.768;2023-08-12T13:36:00;2.10;;;1.90;;
71150;SDS011;59071;42.138;24.768;2023-08-12T13:38:26;3.22;;;1.90;;
71150;SDS011;59071;42.138;24.768;2023-08-12T13:40:51;2.13;;;1.92;;
71150;SDS011;59071;42.138;24.768;2023-08-12T13:43:16;2.63;;;1.70;;
71150;SDS011;59071;42.138;24.768;2023-08-12T13:45:42;3.85;;;1.90;;
71150;SDS011;59071;42.138;24.768;2023-08-12T13:48:07;4.05;;;2.00;;
71150;SDS011;59071;42.138;24.768;2023-08-12T13:50:33;2.65;;;2.08;;
71150;SDS011;59071;42.138;24.768;2023-08-12T13:52:58;2.65;;;1.90;;
71150;SDS011;59071;42.138;24.768;2023-08-12T13:55:24;2.25;;;1.85;;
71150;SDS011;59071;42.138;24.768;2023-08-12T13:57:50;2.30;;;2.03;;
71150;SDS011;59071;42.138;24.768;2023-08-12T14:00:16;2.53;;;1.85;;
71150;SDS011;59071;42.138;24.768;2023-08-12T14:02:42;2.20;;;1.75;;
71150;SDS011;59071;42.138;24.768;2023-08-12T14:05:08;1.85;;;1.63;;
71150;SDS011;59071;42.138;24.768;2023-08-12T14:07:35;2.67;;;1.85;;
71150;SDS011;59071;42.138;24.768;2023-08-12T14:10:00;3.55;;;1.80;;
71150;SDS011;59071;42.138;24.768;2023-08-12T14:12:26;1.90;;;1.70;;
71150;SDS011;59071;42.138;24.768;2023-08-12T14:14:51;2.25;;;1.70;;
71150;SDS011;59071;42.138;24.768;2023-08-12T14:17:17;2.20;;;2.00;;
71150;SDS011;59071;42.138;24.768;2023-08-12T14:19:44;3.08;;;1.73;;
71150;SDS011;59071;42.138;24.768;2023-08-12T14:22:12;2.30;;;1.67;;
71150;SDS011;59071;42.138;24.768;2023-08-12T14:24:38;1.88;;;1.70;;
71150;SDS011;59071;42.138;24.768;2023-08-12T14:27:03;1.75;;;1.63;;
71150;SDS011;59071;42.138;24.768;2023-08-12T14:29:29;2.17;;;1.60;;
71150;SDS011;59071;42.138;24.768;2023-08-12T14:31:54;2.22;;;1.80;;
71150;SDS011;59071;42.138;24.768;2023-08-12T14:34:20;2.33;;;2.13;;
71150;SDS011;59071;42.138;24.768;2023-08-12T14:36:45;1.90;;;1.70;;